createdAt,value
2018-04-14T00:00:35.200Z,2.5
2018-04-14T00:03:35.022Z,2.5
2018-04-14T00:06:35.373Z,2.6
2018-04-14T00:09:35.203Z,2.5
2018-04-14T00:12:35.172Z,2.8
2018-04-14T00:15:35.244Z,2.8
2018-04-14T00:18:35.107Z,2.7
2018-04-14T00:21:35.155Z,2.6
2018-04-14T00:24:35.053Z,2.5
2018-04-14T00:27:35.127Z,2.5
2018-04-14T00:30:35.025Z,2.5
2018-04-14T00:33:35.262Z,2.5
2018-04-14T00:36:35.415Z,2.5
2018-04-14T00:39:35.172Z,2.5
2018-04-14T00:42:35.106Z,2.4
2018-04-14T00:45:35.120Z,2.4
2018-04-14T00:48:35.088Z,2.4
2018-04-14T00:51:35.116Z,2.5
2018-04-14T00:54:37.237Z,2.5
2018-04-14T00:57:35.184Z,2.6
2018-04-14T01:00:35.145Z,2.5
2018-04-14T01:03:35.211Z,2.4
2018-04-14T01:06:35.199Z,2.4
2018-04-14T01:09:35.064Z,2.5
2018-04-14T01:12:34.985Z,2.4
2018-04-14T01:15:35.225Z,2.6
2018-04-14T01:18:35.088Z,2.5
2018-04-14T01:21:35.024Z,2.6
2018-04-14T01:24:35.050Z,2.5
2018-04-14T01:27:35.415Z,2.4
2018-04-14T01:30:34.991Z,2.4
2018-04-14T01:33:34.968Z,2.5
2018-04-14T01:36:35.097Z,2.4
2018-04-14T01:39:35.144Z,2.4
2018-04-14T01:42:35.145Z,2.5
2018-04-14T01:45:35.300Z,2.7
2018-04-14T01:48:35.210Z,2.6
2018-04-14T01:51:35.156Z,2.5
2018-04-14T01:54:34.987Z,2.4
2018-04-14T01:57:35.069Z,2.4
2018-04-14T02:00:35.103Z,2.4
2018-04-14T02:03:35.039Z,2.3
2018-04-14T02:06:35.212Z,2.3
2018-04-14T02:09:35.143Z,2.4
2018-04-14T02:12:35.157Z,2.4
2018-04-14T02:15:35.157Z,2.4
2018-04-14T02:18:35.011Z,2.4
2018-04-14T02:21:35.190Z,2.4
2018-04-14T02:24:35.288Z,2.3
2018-04-14T02:27:35.170Z,2.4
2018-04-14T02:30:35.011Z,2.3
2018-04-14T02:33:35.192Z,2.5
2018-04-14T02:36:35.168Z,2.4
2018-04-14T02:39:35.175Z,2.5
2018-04-14T02:42:35.299Z,2.5
2018-04-14T02:45:35.124Z,2.4
2018-04-14T02:48:35.051Z,2.7
2018-04-14T02:51:35.181Z,2.7
2018-04-14T02:54:35.268Z,2.5
2018-04-14T02:57:35.198Z,2.4
2018-04-14T03:00:35.004Z,2.3
2018-04-14T03:03:35.148Z,2.3
2018-04-14T03:06:35.147Z,2.3
2018-04-14T03:09:35.253Z,2.3
2018-04-14T03:12:35.251Z,2.3
2018-04-14T03:15:35.076Z,2.4
2018-04-14T03:18:35.335Z,2.5
2018-04-14T03:21:35.241Z,2.4
2018-04-14T03:24:35.229Z,2.5
2018-04-14T03:27:35.174Z,2.3
2018-04-14T03:30:35.125Z,2.3
2018-04-14T03:33:35.159Z,2.3
2018-04-14T03:36:35.017Z,2.3
2018-04-14T03:39:35.063Z,2.3
2018-04-14T03:42:34.951Z,2.3
2018-04-14T03:45:35.022Z,2.2
2018-04-14T03:48:35.282Z,2.3
2018-04-14T03:51:35.050Z,2.3
2018-04-14T03:54:35.041Z,2.2
2018-04-14T03:57:35.101Z,2.1
2018-04-14T04:00:35.112Z,1.9
2018-04-14T04:03:35.168Z,1.9
2018-04-14T04:06:35.194Z,1.9
2018-04-14T04:09:35.115Z,1.9
2018-04-14T04:12:35.068Z,2.1
2018-04-14T04:15:35.080Z,2
2018-04-14T04:18:35.120Z,1.9
2018-04-14T04:21:35.043Z,1.9
2018-04-14T04:24:36.456Z,1.9
2018-04-14T04:27:35.283Z,1.9
2018-04-14T04:30:35.085Z,1.9
2018-04-14T04:33:35.105Z,1.8
2018-04-14T04:36:35.135Z,1.9
2018-04-14T04:39:35.169Z,1.9
2018-04-14T04:42:35.069Z,1.8
2018-04-14T04:45:34.983Z,1.8
2018-04-14T04:48:35.121Z,1.9
2018-04-14T04:51:35.152Z,1.9
2018-04-14T04:54:34.980Z,1.8
2018-04-14T04:57:35.194Z,1.7
2018-04-14T05:00:34.988Z,1.8
2018-04-14T05:03:35.072Z,1.8
2018-04-14T05:06:34.948Z,1.8
2018-04-14T05:09:35.025Z,1.8
2018-04-14T05:12:35.110Z,1.8
2018-04-14T05:15:35.052Z,1.8
2018-04-14T05:18:35.002Z,1.7
2018-04-14T05:21:34.972Z,1.7
2018-04-14T05:24:35.119Z,2.3
2018-04-14T05:27:35.114Z,2
2018-04-14T05:30:35.100Z,1.8
2018-04-14T05:33:35.039Z,1.8
2018-04-14T05:36:34.997Z,1.7
2018-04-14T05:39:34.914Z,1.7
2018-04-14T05:42:35.152Z,1.7
2018-04-14T05:45:35.034Z,1.7
2018-04-14T05:48:34.949Z,1.7
2018-04-14T05:51:35.169Z,1.7
2018-04-14T05:54:35.277Z,1.7
2018-04-14T05:57:34.968Z,1.7
2018-04-14T06:00:35.125Z,1.7
2018-04-14T06:03:35.283Z,1.7
2018-04-14T06:06:34.973Z,1.7
2018-04-14T06:09:34.985Z,1.7
2018-04-14T06:12:35.145Z,1.7
2018-04-14T06:15:35.013Z,1.7
2018-04-14T06:18:35.157Z,1.7
2018-04-14T06:21:35.085Z,1.7
2018-04-14T06:24:35.113Z,1.7
2018-04-14T06:27:35.099Z,1.6
2018-04-14T06:30:34.967Z,1.6
2018-04-14T06:33:35.065Z,1.6
2018-04-14T06:36:35.110Z,1.6
2018-04-14T06:39:35.075Z,1.6
2018-04-14T06:42:35.032Z,1.6
2018-04-14T06:45:35.051Z,1.6
2018-04-14T06:48:35.021Z,1.6
2018-04-14T06:51:34.997Z,1.6
2018-04-14T06:54:35.054Z,1.5
2018-04-14T06:57:35.135Z,1.6
2018-04-14T07:00:35.283Z,1.6
2018-04-14T07:03:35.127Z,1.6
2018-04-14T07:06:35.148Z,1.6
2018-04-14T07:09:34.937Z,1.6
2018-04-14T07:12:34.932Z,1.6
2018-04-14T07:15:34.991Z,1.6
2018-04-14T07:18:35.004Z,1.6
2018-04-14T07:21:35.005Z,1.6
2018-04-14T07:24:34.988Z,1.5
2018-04-14T07:27:35.008Z,1.5
2018-04-14T07:30:35.015Z,1.5
2018-04-14T07:33:35.065Z,1.6
2018-04-14T07:36:35.119Z,1.5
2018-04-14T07:39:35.068Z,1.5
2018-04-14T07:42:35.016Z,1.5
2018-04-14T07:45:34.998Z,1.5
2018-04-14T07:48:35.090Z,1.5
2018-04-14T07:51:35.141Z,1.6
2018-04-14T07:54:35.141Z,1.6
2018-04-14T07:57:35.111Z,1.6
2018-04-14T08:00:35.129Z,1.6
2018-04-14T08:03:34.884Z,1.6
2018-04-14T08:06:35.010Z,1.6
2018-04-14T08:09:34.934Z,1.5
2018-04-14T08:12:35.162Z,1.6
2018-04-14T08:15:34.958Z,1.6
2018-04-14T08:18:34.894Z,1.6
2018-04-14T08:21:35.133Z,1.6
2018-04-14T08:24:35.101Z,1.6
2018-04-14T08:27:35.183Z,1.6
2018-04-14T08:30:34.955Z,1.6
2018-04-14T08:33:34.856Z,1.6
2018-04-14T08:36:34.907Z,1.5
2018-04-14T08:39:35.075Z,1.5
2018-04-14T08:42:34.954Z,1.5
2018-04-14T08:45:34.939Z,1.6
2018-04-14T08:48:34.992Z,1.5
2018-04-14T08:51:35.073Z,1.5
2018-04-14T08:54:35.096Z,1.5
2018-04-14T08:57:35.032Z,1.5
2018-04-14T09:00:35.002Z,1.5
2018-04-14T09:03:35.086Z,1.4
2018-04-14T09:06:35.002Z,1.4
2018-04-14T09:09:35.125Z,2.9
2018-04-14T09:12:35.081Z,2.8
2018-04-14T09:15:34.905Z,2.7
2018-04-14T09:18:34.887Z,2.4
2018-04-14T09:21:34.938Z,2.4
2018-04-14T09:24:34.912Z,2.7
2018-04-14T09:27:34.961Z,2.9
2018-04-14T09:30:34.983Z,2.7
2018-04-14T09:33:35.110Z,2.4
2018-04-14T09:36:35.125Z,2.9
2018-04-14T09:39:34.942Z,2.8
2018-04-14T09:42:35.037Z,2.9
2018-04-14T09:45:35.097Z,2.3
2018-04-14T09:48:35.031Z,2.2
2018-04-14T09:51:34.952Z,2.4
2018-04-14T09:54:36.344Z,2.1
2018-04-14T09:57:34.883Z,2.2
2018-04-14T10:00:34.909Z,2.4
2018-04-14T10:03:35.202Z,2
2018-04-14T10:06:35.178Z,1.9
2018-04-14T10:09:35.121Z,2
2018-04-14T10:12:34.992Z,1.9
2018-04-14T10:15:35.138Z,2.2
2018-04-14T10:18:34.932Z,1.9
2018-04-14T10:21:35.156Z,2.1
2018-04-14T10:24:34.924Z,1.9
2018-04-14T10:27:34.963Z,1.7
2018-04-14T10:30:34.917Z,1.7
2018-04-14T10:33:34.896Z,2.9
2018-04-14T10:36:34.818Z,2.6
2018-04-14T10:39:34.853Z,2.1
2018-04-14T10:42:34.871Z,2
2018-04-14T10:45:34.982Z,2
2018-04-14T10:48:35.039Z,1.8
2018-04-14T10:51:34.925Z,1.7
2018-04-14T10:54:35.113Z,1.7
2018-04-14T10:57:34.961Z,1.7
2018-04-14T11:00:34.897Z,2
2018-04-14T11:03:34.867Z,1.9
2018-04-14T11:06:34.908Z,2.1
2018-04-14T11:09:35.128Z,2.1
2018-04-14T11:12:34.922Z,2.7
2018-04-14T11:15:34.843Z,2.4
2018-04-14T11:18:35.031Z,2.3
2018-04-14T11:21:34.928Z,2.1
2018-04-14T11:24:35.118Z,2
2018-04-14T11:27:35.032Z,2.9
2018-04-14T11:30:35.051Z,2.6
2018-04-14T11:33:35.033Z,2.2
2018-04-14T11:36:34.837Z,2.3
2018-04-14T11:39:34.989Z,2.2
2018-04-14T11:42:34.964Z,2
2018-04-14T11:45:34.823Z,1.7
2018-04-14T11:48:35.015Z,1.6
2018-04-14T11:51:34.903Z,1.6
2018-04-14T11:54:34.976Z,1.5
2018-04-14T11:57:34.979Z,1.6
2018-04-14T12:00:34.852Z,1.7
2018-04-14T12:03:34.812Z,1.6
2018-04-14T12:06:34.959Z,1.9
2018-04-14T12:09:34.850Z,1.7
2018-04-14T12:12:34.962Z,1.6
2018-04-14T12:15:34.917Z,1.5
2018-04-14T12:18:35.351Z,1.4
2018-04-14T12:21:35.034Z,1.7
2018-04-14T12:24:34.946Z,1.9
2018-04-14T12:27:34.988Z,1.7
2018-04-14T12:30:35.054Z,1.9
2018-04-14T12:33:35.042Z,1.8
2018-04-14T12:36:35.049Z,2
2018-04-14T12:39:34.965Z,1.9
2018-04-14T12:42:35.004Z,2.1
2018-04-14T12:45:35.040Z,1.8
2018-04-14T12:48:34.959Z,2.1
2018-04-14T12:51:34.952Z,2
2018-04-14T12:54:34.980Z,1.9
2018-04-14T12:57:34.924Z,2
2018-04-14T13:00:34.981Z,1.9
2018-04-14T13:03:35.035Z,1.8
2018-04-14T13:06:34.911Z,1.8
2018-04-14T13:09:34.892Z,1.7
2018-04-14T13:12:35.048Z,1.8
2018-04-14T13:15:34.988Z,1.7
2018-04-14T13:18:35.113Z,1.7
2018-04-14T13:21:35.066Z,1.9
2018-04-14T13:24:34.826Z,2.4
2018-04-14T13:27:34.977Z,2.4
2018-04-14T13:30:34.943Z,2.1
2018-04-14T13:33:34.985Z,2.2
2018-04-14T13:36:34.863Z,2
2018-04-14T13:39:34.887Z,2
2018-04-14T13:42:34.776Z,2
2018-04-14T13:45:34.897Z,1.9
2018-04-14T13:48:35.020Z,1.8
2018-04-14T13:51:35.038Z,1.8
2018-04-14T13:54:35.001Z,1.8
2018-04-14T13:57:35.021Z,1.7
2018-04-14T14:00:34.997Z,1.7
2018-04-14T14:03:35.056Z,2.2
2018-04-14T14:06:34.948Z,2
2018-04-14T14:09:34.893Z,2.1
2018-04-14T14:12:34.929Z,2.1
2018-04-14T14:15:34.896Z,1.9
2018-04-14T14:18:34.884Z,2.2
2018-04-14T14:21:34.904Z,1.9
2018-04-14T14:24:34.792Z,1.8
2018-04-14T14:27:34.911Z,1.7
2018-04-14T14:30:35.042Z,2
2018-04-14T14:33:35.378Z,2.2
2018-04-14T14:36:35.055Z,2.2
2018-04-14T14:39:34.938Z,2
2018-04-14T14:42:36.021Z,2
2018-04-14T14:45:34.856Z,1.8
2018-04-14T14:48:36.147Z,1.8
2018-04-14T14:51:35.000Z,1.7
2018-04-14T14:54:34.941Z,1.8
2018-04-14T14:57:35.057Z,1.7
2018-04-14T15:00:34.893Z,1.9
2018-04-14T15:03:34.874Z,1.8
2018-04-14T15:06:34.784Z,1.7
2018-04-14T15:09:35.227Z,1.6
2018-04-14T15:12:34.798Z,1.7
2018-04-14T15:15:34.908Z,2.5
2018-04-14T15:18:34.854Z,2.8
2018-04-14T15:21:34.877Z,2.5
2018-04-14T15:24:34.941Z,3.2
2018-04-14T15:27:34.780Z,2.6
2018-04-14T15:30:35.049Z,3.3
2018-04-14T15:33:34.851Z,3.5
2018-04-14T15:36:34.959Z,5.3
2018-04-14T15:39:34.774Z,5.1
2018-04-14T15:42:35.097Z,5.6
2018-04-14T15:45:37.804Z,6.2
2018-04-14T15:48:34.811Z,7.8
2018-04-14T15:51:35.063Z,7.3
2018-04-14T15:54:34.781Z,6.7
2018-04-14T15:57:35.098Z,6.9
2018-04-14T16:00:35.158Z,7.8
2018-04-14T16:03:34.955Z,8.2
2018-04-14T16:06:34.958Z,7.7
2018-04-14T16:09:35.031Z,6.9
2018-04-14T16:12:34.943Z,7.1
2018-04-14T16:15:34.911Z,7.2
2018-04-14T16:18:34.925Z,5.9
2018-04-14T16:21:34.805Z,4.7
2018-04-14T16:24:34.891Z,5.6
2018-04-14T16:27:35.134Z,4.9
2018-04-14T16:30:34.927Z,4.8
2018-04-14T16:33:34.950Z,5.7
2018-04-14T16:36:34.976Z,5.7
2018-04-14T16:39:35.119Z,5.9
2018-04-14T16:42:34.910Z,4.2
2018-04-14T16:45:35.037Z,4.7
2018-04-14T16:48:34.873Z,5.5
2018-04-14T16:51:35.035Z,6.7
2018-04-14T16:54:34.759Z,6
2018-04-14T16:57:34.896Z,5.5
2018-04-14T17:00:34.882Z,5.2
2018-04-14T17:03:34.792Z,4.7
2018-04-14T17:06:35.006Z,3.9
2018-04-14T17:09:34.961Z,3.5
2018-04-14T17:12:34.832Z,4.8
2018-04-14T17:15:35.142Z,4.3
2018-04-14T17:18:34.848Z,3.7
2018-04-14T17:21:34.890Z,3.6
2018-04-14T17:24:34.778Z,3.7
2018-04-14T17:27:34.894Z,4.9
2018-04-14T17:30:34.779Z,3.8
2018-04-14T17:33:34.747Z,3.2
2018-04-14T17:36:34.875Z,3.2
2018-04-14T17:39:34.879Z,3.2
2018-04-14T17:42:34.826Z,3.5
2018-04-14T17:45:35.424Z,3.6
2018-04-14T17:48:34.761Z,3.7
2018-04-14T17:51:35.037Z,3.4
2018-04-14T17:54:34.859Z,4.1
2018-04-14T17:57:34.960Z,4
2018-04-14T18:00:34.764Z,3.7
2018-04-14T18:03:34.737Z,4.1
2018-04-14T18:06:34.888Z,3.6
2018-04-14T18:09:35.110Z,3.2
2018-04-14T18:12:35.114Z,3.2
2018-04-14T18:15:34.881Z,3.8
2018-04-14T18:18:34.777Z,3.7
2018-04-14T18:21:34.937Z,3.2
2018-04-14T18:24:34.866Z,2.8
2018-04-14T18:27:34.725Z,3.4
2018-04-14T18:30:34.938Z,2.9
2018-04-14T18:33:34.733Z,2.7
2018-04-14T18:36:34.668Z,3.3
2018-04-14T18:39:35.716Z,3.1
2018-04-14T18:42:34.964Z,2.6
2018-04-14T18:45:34.806Z,3
2018-04-14T18:48:34.892Z,3.3
2018-04-14T18:51:34.737Z,2.9
2018-04-14T18:54:34.816Z,3.5
2018-04-14T18:57:34.784Z,3.3
2018-04-14T19:00:34.783Z,3.7
2018-04-14T19:03:34.898Z,3.1
2018-04-14T19:06:34.950Z,2.8
2018-04-14T19:09:34.741Z,3.6
2018-04-14T19:12:34.893Z,2.8
2018-04-14T19:15:34.872Z,2.9
2018-04-14T19:18:34.816Z,3.3
2018-04-14T19:21:34.893Z,3
2018-04-14T19:24:35.448Z,2.6
2018-04-14T19:27:34.945Z,2.8
2018-04-14T19:30:34.933Z,3
2018-04-14T19:33:34.913Z,3.5
2018-04-14T19:36:34.908Z,3.2
2018-04-14T19:39:34.749Z,3.3
2018-04-14T19:42:34.921Z,2.9
2018-04-14T19:45:34.987Z,2.6
2018-04-14T19:48:35.238Z,2.5
2018-04-14T19:51:34.654Z,3.2
2018-04-14T19:54:35.641Z,3.1
2018-04-14T19:57:34.880Z,4.8
2018-04-14T20:00:34.846Z,5.4
2018-04-14T20:03:34.727Z,5.3
2018-04-14T20:06:34.792Z,6.4
2018-04-14T20:09:34.893Z,6.4
2018-04-14T20:12:34.839Z,5.6
2018-04-14T20:15:34.747Z,5
2018-04-14T20:18:34.802Z,5.2
2018-04-14T20:21:34.778Z,4.6
2018-04-14T20:24:34.668Z,4.8
2018-04-14T20:27:34.737Z,4.1
2018-04-14T20:30:34.964Z,3.9
2018-04-14T20:33:34.717Z,3.8
2018-04-14T20:36:34.939Z,5.3
2018-04-14T20:39:34.899Z,4.5
2018-04-14T20:42:34.977Z,4.1
2018-04-14T20:45:34.764Z,3.3
2018-04-14T20:48:34.725Z,3.1
2018-04-14T20:51:34.755Z,4
2018-04-14T20:54:34.726Z,3.8
2018-04-14T20:57:34.680Z,3.8
2018-04-14T21:00:34.854Z,4
2018-04-14T21:03:34.855Z,4
2018-04-14T21:06:34.934Z,3.6
2018-04-14T21:09:34.787Z,3.2
2018-04-14T21:12:34.843Z,3.9
2018-04-14T21:15:34.825Z,4.3
2018-04-14T21:18:34.645Z,3.3
2018-04-14T21:21:34.768Z,3.1
2018-04-14T21:24:34.795Z,3.1
2018-04-14T21:27:34.851Z,3
2018-04-14T21:30:34.859Z,2.8
2018-04-14T21:33:34.765Z,3.2
2018-04-14T21:36:35.008Z,2.7
2018-04-14T21:39:34.739Z,2.6
2018-04-14T21:42:34.825Z,3
2018-04-14T21:45:34.905Z,2.5
2018-04-14T21:48:34.809Z,2.7
2018-04-14T21:51:34.826Z,2.6
2018-04-14T21:54:34.868Z,2.6
2018-04-14T21:57:34.682Z,2.7
2018-04-14T22:00:34.904Z,2.3
2018-04-14T22:03:34.763Z,2.2
2018-04-14T22:06:34.869Z,2.2
2018-04-14T22:09:34.721Z,3.3
2018-04-14T22:12:35.569Z,2.8
2018-04-14T22:15:34.867Z,2.5
2018-04-14T22:18:34.797Z,2.6
2018-04-14T22:21:34.875Z,2.4
2018-04-14T22:24:34.944Z,2.3
2018-04-14T22:27:34.757Z,2.3
2018-04-14T22:30:34.630Z,2.3
2018-04-14T22:33:34.840Z,2.5
2018-04-14T22:36:34.886Z,2.3
2018-04-14T22:39:34.618Z,2.1
2018-04-14T22:42:34.890Z,1.9
2018-04-14T22:45:34.637Z,2
2018-04-14T22:48:35.111Z,2.4
2018-04-14T22:51:34.640Z,2.6
2018-04-14T22:54:34.660Z,2.6
2018-04-14T22:57:34.843Z,2.2
2018-04-14T23:00:34.728Z,2
2018-04-14T23:03:34.704Z,2.4
2018-04-14T23:06:34.839Z,2.6
2018-04-14T23:09:34.842Z,2.3
2018-04-14T23:12:34.823Z,2.2
2018-04-14T23:15:34.812Z,2
2018-04-14T23:18:34.705Z,2.1
2018-04-14T23:21:34.614Z,2.4
2018-04-14T23:24:34.664Z,2.1
2018-04-14T23:27:34.811Z,1.9
2018-04-14T23:30:34.713Z,2.1
2018-04-14T23:33:34.938Z,1.9
2018-04-14T23:36:34.840Z,1.9
2018-04-14T23:39:34.885Z,1.9
2018-04-14T23:42:34.737Z,2.2
2018-04-14T23:45:34.776Z,2.5
2018-04-14T23:48:34.600Z,2.4
2018-04-14T23:51:34.672Z,2.4
2018-04-14T23:54:34.729Z,2.1
2018-04-14T23:57:34.572Z,2.2
